Time;durP1;ratioP1;P1;durP2;ratioP2;P2;SDS_P1;SDS_P2;PMS_P1;PMS_P2;Temp;Humidity;BMP_temperature;BMP_pressure;BME280_temperature;BME280_humidity;BME280_pressure;Samples;Min_cycle;Max_cycle;Signal;HPM_P1;HPM_P2
2023/12/27 00:00:35;;;;;;;13.70;7.93;;;;;;;;;;5070554;27;98319;-75
2023/12/27 00:03:02;;;;;;;23.30;9.48;;;;;;;;;;5069553;27;99244;-75
2023/12/27 00:05:29;;;;;;;13.00;7.93;;;;;;;;;;5069755;27;99787;-75
2023/12/27 00:07:56;;;;;;;15.52;9.00;;;;;;;;;;5069509;27;98620;-75
2023/12/27 00:10:23;;;;;;;12.80;9.05;;;;;;;;;;5072998;27;99708;-75
2023/12/27 00:12:49;;;;;;;13.95;8.45;;;;;;;;;;5070046;27;98246;-75
2023/12/27 00:15:16;;;;;;;12.52;8.27;;;;;;;;;;5069048;27;98523;-75
2023/12/27 00:17:42;;;;;;;11.52;8.35;;;;;;;;;;5069424;27;101469;-75
2023/12/27 00:20:09;;;;;;;15.13;8.55;;;;;;;;;;5069986;27;98259;-74
2023/12/27 00:22:35;;;;;;;11.30;8.10;;;;;;;;;;5069699;27;99656;-74
2023/12/27 00:25:02;;;;;;;17.77;8.23;;;;;;;;;;5069529;27;99979;-74
2023/12/27 00:27:29;;;;;;;10.80;8.35;;;;;;;;;;5070321;27;98164;-74
2023/12/27 00:29:56;;;;;;;11.05;8.30;;;;;;;;;;5068575;27;98591;-74
2023/12/27 00:32:23;;;;;;;15.98;7.53;;;;;;;;;;5073479;27;98658;-74
2023/12/27 00:34:49;;;;;;;11.95;6.85;;;;;;;;;;5067974;27;100677;-74
2023/12/27 00:37:16;;;;;;;13.75;7.80;;;;;;;;;;5069018;27;99355;-74
2023/12/27 00:39:44;;;;;;;16.17;8.27;;;;;;;;;;5070227;27;98171;-74
2023/12/27 00:42:11;;;;;;;13.30;7.85;;;;;;;;;;5069658;27;98432;-74
2023/12/27 00:44:38;;;;;;;7.82;7.07;;;;;;;;;;5068883;27;99892;-74
2023/12/27 00:47:05;;;;;;;12.75;7.75;;;;;;;;;;5068489;27;98337;-74
2023/12/27 00:49:31;;;;;;;9.65;7.15;;;;;;;;;;5069968;27;98578;-74
2023/12/27 00:51:58;;;;;;;12.50;7.32;;;;;;;;;;5068719;27;99277;-74
2023/12/27 00:54:24;;;;;;;14.18;6.72;;;;;;;;;;5072244;27;98177;-74
2023/12/27 00:56:51;;;;;;;13.32;7.68;;;;;;;;;;5067943;27;99078;-74
2023/12/27 00:59:17;;;;;;;10.18;6.63;;;;;;;;;;5068459;27;98234;-75
2023/12/27 01:01:44;;;;;;;11.68;7.55;;;;;;;;;;5069796;27;98251;-74
2023/12/27 01:04:10;;;;;;;17.95;6.88;;;;;;;;;;5067314;27;100002;-75
2023/12/27 01:06:37;;;;;;;17.42;7.70;;;;;;;;;;5069529;27;98163;-74
2023/12/27 01:09:03;;;;;;;17.23;6.22;;;;;;;;;;5068297;27;101189;-74
2023/12/27 01:11:30;;;;;;;21.13;6.50;;;;;;;;;;5068724;27;98765;-75
2023/12/27 01:13:57;;;;;;;17.45;6.93;;;;;;;;;;5072214;27;98179;-75
2023/12/27 01:16:24;;;;;;;11.70;7.68;;;;;;;;;;5069402;27;99120;-74
2023/12/27 01:18:51;;;;;;;11.02;7.18;;;;;;;;;;5066788;27;98216;-74
2023/12/27 01:21:17;;;;;;;6.97;6.35;;;;;;;;;;5068993;27;98368;-74
2023/12/27 01:23:44;;;;;;;10.80;6.55;;;;;;;;;;5069122;27;99891;-75
2023/12/27 01:26:10;;;;;;;10.80;6.82;;;;;;;;;;5068553;27;98462;-74
2023/12/27 01:28:37;;;;;;;14.52;6.85;;;;;;;;;;5069320;27;98299;-75
2023/12/27 01:31:03;;;;;;;21.17;7.63;;;;;;;;;;5068842;27;98824;-74
2023/12/27 01:33:30;;;;;;;14.85;7.68;;;;;;;;;;5068647;27;98405;-75
2023/12/27 01:35:57;;;;;;;7.85;6.78;;;;;;;;;;5070829;27;100210;-75
2023/12/27 01:38:23;;;;;;;15.15;6.95;;;;;;;;;;5069095;27;98407;-75
2023/12/27 01:40:50;;;;;;;7.35;6.25;;;;;;;;;;5068153;27;99092;-74
2023/12/27 01:43:17;;;;;;;16.17;7.10;;;;;;;;;;5067886;27;99856;-74
2023/12/27 01:45:45;;;;;;;12.30;7.10;;;;;;;;;;5067013;27;98295;-74
2023/12/27 01:48:12;;;;;;;14.27;7.22;;;;;;;;;;5068070;27;98953;-74
2023/12/27 01:50:40;;;;;;;7.13;6.40;;;;;;;;;;5068773;27;98861;-75
2023/12/27 01:53:08;;;;;;;8.27;6.43;;;;;;;;;;5068636;27;98199;-75
2023/12/27 01:55:35;;;;;;;8.45;7.03;;;;;;;;;;5068132;27;98418;-74
2023/12/27 01:58:02;;;;;;;17.45;8.00;;;;;;;;;;5070242;27;102680;-75
2023/12/27 02:00:29;;;;;;;11.68;8.32;;;;;;;;;;5067249;27;100936;-75
2023/12/27 02:02:56;;;;;;;20.50;7.00;;;;;;;;;;5068462;27;100854;-75
2023/12/27 02:05:23;;;;;;;11.35;7.35;;;;;;;;;;5068699;27;98202;-75
2023/12/27 02:07:49;;;;;;;13.35;7.43;;;;;;;;;;5066111;27;99728;-74
2023/12/27 02:10:17;;;;;;;19.90;8.32;;;;;;;;;;5066067;27;101029;-74
2023/12/27 02:12:43;;;;;;;14.93;8.70;;;;;;;;;;5068393;27;98126;-75
2023/12/27 02:15:10;;;;;;;15.85;8.05;;;;;;;;;;5067651;27;98488;-74
2023/12/27 02:17:37;;;;;;;24.67;8.52;;;;;;;;;;5068576;27;98935;-74
2023/12/27 02:20:03;;;;;;;15.32;8.02;;;;;;;;;;5070139;27;98334;-74
2023/12/27 02:22:33;;;;;;;16.33;7.68;;;;;;;;;;5065371;27;101188;-75
2023/12/27 02:25:01;;;;;;;9.25;7.60;;;;;;;;;;5067674;27;98219;-75
2023/12/27 02:27:28;;;;;;;12.18;8.27;;;;;;;;;;5066903;27;101242;-74
2023/12/27 02:29:55;;;;;;;14.02;7.80;;;;;;;;;;5066063;27;99917;-75
2023/12/27 02:32:23;;;;;;;9.15;7.40;;;;;;;;;;5067341;27;98167;-74
2023/12/27 02:34:50;;;;;;;14.40;7.80;;;;;;;;;;5068445;27;98377;-75
2023/12/27 02:37:17;;;;;;;17.67;8.32;;;;;;;;;;5065241;27;101556;-75
2023/12/27 02:39:44;;;;;;;12.40;8.15;;;;;;;;;;5066657;27;98244;-75
2023/12/27 02:42:10;;;;;;;9.57;7.25;;;;;;;;;;5070802;27;99339;-75
2023/12/27 02:44:37;;;;;;;21.40;7.95;;;;;;;;;;5066089;27;98032;-74
2023/12/27 02:47:03;;;;;;;14.43;8.43;;;;;;;;;;5067935;27;99312;-75
2023/12/27 02:49:30;;;;;;;10.65;7.88;;;;;;;;;;5066539;27;100447;-75
2023/12/27 02:51:56;;;;;;;18.90;8.88;;;;;;;;;;5066404;27;98480;-75
2023/12/27 02:54:23;;;;;;;16.38;8.50;;;;;;;;;;5068791;27;98401;-74
2023/12/27 02:56:49;;;;;;;15.48;8.93;;;;;;;;;;5068722;27;98989;-75
2023/12/27 02:59:16;;;;;;;20.40;8.93;;;;;;;;;;5069997;27;99982;-74
2023/12/27 03:01:42;;;;;;;18.20;9.60;;;;;;;;;;5068288;27;99901;-74
2023/12/27 03:04:09;;;;;;;21.65;8.65;;;;;;;;;;5070866;27;98255;-74
2023/12/27 03:06:36;;;;;;;17.45;10.40;;;;;;;;;;5066548;27;102601;-74
2023/12/27 03:09:02;;;;;;;21.80;8.68;;;;;;;;;;5066775;27;101955;-74
2023/12/27 03:11:30;;;;;;;30.10;9.13;;;;;;;;;;5067329;27;98696;-74
2023/12/27 03:13:57;;;;;;;16.75;8.70;;;;;;;;;;5066771;27;101003;-75
2023/12/27 03:16:23;;;;;;;26.98;9.02;;;;;;;;;;5068336;27;98888;-74
2023/12/27 03:18:50;;;;;;;20.58;9.55;;;;;;;;;;5069351;27;98138;-75
2023/12/27 03:21:17;;;;;;;18.15;8.82;;;;;;;;;;5067480;27;98460;-75
2023/12/27 03:23:43;;;;;;;22.35;10.80;;;;;;;;;;5072188;27;101671;-75
2023/12/27 03:26:09;;;;;;;13.05;9.43;;;;;;;;;;5068769;27;98518;-75
2023/12/27 03:28:37;;;;;;;19.05;9.75;;;;;;;;;;5070745;27;100044;-75
2023/12/27 03:31:03;;;;;;;13.38;9.32;;;;;;;;;;5070532;27;98224;-75
2023/12/27 03:33:30;;;;;;;15.75;9.98;;;;;;;;;;5070328;27;99669;-75
2023/12/27 03:35:57;;;;;;;26.13;10.55;;;;;;;;;;5068670;27;100733;-75
2023/12/27 03:38:23;;;;;;;15.77;9.02;;;;;;;;;;5071377;27;98175;-75
2023/12/27 03:40:50;;;;;;;17.05;10.65;;;;;;;;;;5070124;27;98747;-75
2023/12/27 03:43:18;;;;;;;24.50;9.50;;;;;;;;;;5070243;27;100108;-75
2023/12/27 03:45:50;;;;;;;20.40;9.60;;;;;;;;;;5073488;27;98174;-75
2023/12/27 03:48:17;;;;;;;29.65;10.52;;;;;;;;;;5070052;27;99917;-74
2023/12/27 03:50:45;;;;;;;17.52;9.38;;;;;;;;;;5070601;27;98333;-75
2023/12/27 03:53:11;;;;;;;20.52;9.65;;;;;;;;;;5069015;27;101527;-75
2023/12/27 03:55:37;;;;;;;10.52;9.27;;;;;;;;;;5070671;27;99090;-75
2023/12/27 03:58:04;;;;;;;17.50;8.25;;;;;;;;;;5068697;27;98267;-75
2023/12/27 04:00:30;;;;;;;16.92;9.00;;;;;;;;;;5069793;27;98564;-75
2023/12/27 04:02:57;;;;;;;10.13;7.75;;;;;;;;;;5068909;27;100307;-75
2023/12/27 04:05:23;;;;;;;18.02;9.32;;;;;;;;;;5070707;27;98821;-75
2023/12/27 04:07:50;;;;;;;14.80;9.32;;;;;;;;;;5073487;27;98449;-75
2023/12/27 04:10:16;;;;;;;22.80;9.02;;;;;;;;;;5068921;27;98531;-75
2023/12/27 04:12:43;;;;;;;26.55;9.85;;;;;;;;;;5070871;27;98074;-75
2023/12/27 04:15:10;;;;;;;19.92;10.73;;;;;;;;;;5067711;27;101565;-75
2023/12/27 04:17:36;;;;;;;11.85;9.35;;;;;;;;;;5070277;27;98219;-75
2023/12/27 04:20:03;;;;;;;12.68;9.50;;;;;;;;;;5070175;27;98458;-75
2023/12/27 04:22:30;;;;;;;24.13;9.73;;;;;;;;;;5067986;27;101554;-75
2023/12/27 04:24:56;;;;;;;17.70;8.85;;;;;;;;;;5070040;27;98752;-75
2023/12/27 04:27:23;;;;;;;23.00;9.57;;;;;;;;;;5069270;27;101218;-75
2023/12/27 04:29:49;;;;;;;23.83;8.45;;;;;;;;;;5070640;27;99025;-75
2023/12/27 04:32:16;;;;;;;25.95;9.10;;;;;;;;;;5068775;27;100777;-75
2023/12/27 04:34:42;;;;;;;19.25;8.90;;;;;;;;;;5069466;27;98773;-75
2023/12/27 04:37:09;;;;;;;24.42;9.82;;;;;;;;;;5068641;27;98369;-75
2023/12/27 04:39:36;;;;;;;18.25;9.38;;;;;;;;;;5068761;27;101176;-75
2023/12/27 04:42:02;;;;;;;11.32;8.68;;;;;;;;;;5069278;27;99866;-75
2023/12/27 04:44:29;;;;;;;21.92;9.38;;;;;;;;;;5068198;27;98332;-75
2023/12/27 04:46:56;;;;;;;14.57;8.65;;;;;;;;;;5070163;27;98209;-75
2023/12/27 04:49:23;;;;;;;17.00;8.52;;;;;;;;;;5067600;27;101636;-75
2023/12/27 04:51:51;;;;;;;26.00;9.68;;;;;;;;;;5072235;27;98258;-75
2023/12/27 04:54:17;;;;;;;16.33;9.35;;;;;;;;;;5069196;27;100213;-75
2023/12/27 04:56:44;;;;;;;30.02;9.55;;;;;;;;;;5067197;27;98256;-75
2023/12/27 04:59:10;;;;;;;13.52;9.68;;;;;;;;;;5067392;27;101043;-75
2023/12/27 05:01:37;;;;;;;20.80;7.85;;;;;;;;;;5069678;27;98956;-75
2023/12/27 05:04:03;;;;;;;19.08;8.43;;;;;;;;;;5067064;27;98243;-75
2023/12/27 05:06:30;;;;;;;15.70;8.75;;;;;;;;;;5068216;27;98999;-75
2023/12/27 05:08:59;;;;;;;20.10;8.45;;;;;;;;;;5067633;27;102151;-75
2023/12/27 05:11:26;;;;;;;25.27;8.50;;;;;;;;;;5071386;27;98243;-75
2023/12/27 05:13:53;;;;;;;15.93;8.45;;;;;;;;;;5068915;27;99098;-75
2023/12/27 05:16:19;;;;;;;22.25;9.43;;;;;;;;;;5069417;27;98213;-75
2023/12/27 05:18:46;;;;;;;17.75;8.38;;;;;;;;;;5068539;27;99653;-75
2023/12/27 05:21:13;;;;;;;17.88;8.02;;;;;;;;;;5068690;27;99950;-75
2023/12/27 05:23:40;;;;;;;19.70;9.48;;;;;;;;;;5068538;27;98168;-75
2023/12/27 05:26:06;;;;;;;17.90;8.95;;;;;;;;;;5068273;27;99470;-75
2023/12/27 05:28:33;;;;;;;16.90;8.32;;;;;;;;;;5068961;27;100285;-75
2023/12/27 05:30:59;;;;;;;30.20;9.40;;;;;;;;;;5068619;27;98242;-75
2023/12/27 05:33:26;;;;;;;32.00;9.15;;;;;;;;;;5071285;27;99320;-75
2023/12/27 05:35:53;;;;;;;15.55;8.73;;;;;;;;;;5069105;27;98233;-75
2023/12/27 05:38:23;;;;;;;26.65;10.05;;;;;;;;;;5068456;27;99968;-75
2023/12/27 05:40:49;;;;;;;14.80;8.30;;;;;;;;;;5068860;27;99912;-75
2023/12/27 05:43:16;;;;;;;17.80;8.13;;;;;;;;;;5068878;27;100030;-75
2023/12/27 05:45:43;;;;;;;18.52;7.93;;;;;;;;;;5068508;27;99628;-75
2023/12/27 05:48:09;;;;;;;24.45;8.85;;;;;;;;;;5066762;27;100172;-75
2023/12/27 05:50:36;;;;;;;21.25;9.70;;;;;;;;;;5068673;27;98306;-75
2023/12/27 05:53:02;;;;;;;16.83;9.27;;;;;;;;;;5067489;27;99396;-75
2023/12/27 05:55:29;;;;;;;13.15;8.57;;;;;;;;;;5071977;27;99917;-75
2023/12/27 05:57:55;;;;;;;12.77;8.23;;;;;;;;;;5068801;27;99457;-75
2023/12/27 06:00:23;;;;;;;15.52;8.57;;;;;;;;;;5067887;27;100062;-75
2023/12/27 06:02:50;;;;;;;27.23;8.93;;;;;;;;;;5068651;27;98203;-75
2023/12/27 06:05:16;;;;;;;24.13;9.73;;;;;;;;;;5068613;27;99382;-75
2023/12/27 06:07:43;;;;;;;21.35;9.23;;;;;;;;;;5067463;27;99830;-75
2023/12/27 06:10:09;;;;;;;22.23;8.60;;;;;;;;;;5067688;27;98290;-75
2023/12/27 06:12:36;;;;;;;21.60;8.63;;;;;;;;;;5067933;27;98388;-75
2023/12/27 06:15:03;;;;;;;25.27;9.05;;;;;;;;;;5067256;27;98660;-75
2023/12/27 06:17:30;;;;;;;27.77;10.00;;;;;;;;;;5071545;27;98253;-75
2023/12/27 06:19:56;;;;;;;20.98;8.52;;;;;;;;;;5067824;27;100195;-75
2023/12/27 06:22:24;;;;;;;22.95;9.35;;;;;;;;;;5067697;27;98250;-75
2023/12/27 06:24:50;;;;;;;28.02;9.35;;;;;;;;;;5068328;27;99897;-75
2023/12/27 06:27:17;;;;;;;20.85;9.55;;;;;;;;;;5067999;27;100174;-75
2023/12/27 06:29:43;;;;;;;24.88;9.98;;;;;;;;;;5067895;27;98214;-75
2023/12/27 06:32:10;;;;;;;21.00;9.15;;;;;;;;;;5068083;27;99298;-75
2023/12/27 06:34:36;;;;;;;18.55;9.57;;;;;;;;;;5067273;27;99650;-75
2023/12/27 06:37:03;;;;;;;20.13;8.40;;;;;;;;;;5067347;27;98697;-75
2023/12/27 06:39:30;;;;;;;13.27;7.15;;;;;;;;;;5071245;27;99407;-75
2023/12/27 06:41:56;;;;;;;22.83;9.07;;;;;;;;;;5067239;27;98305;-75
2023/12/27 06:44:23;;;;;;;15.35;8.60;;;;;;;;;;5068338;27;99879;-75
2023/12/27 06:46:50;;;;;;;16.95;7.70;;;;;;;;;;5067849;27;100177;-75
2023/12/27 06:49:16;;;;;;;16.60;8.27;;;;;;;;;;5066959;27;98235;-76
2023/12/27 06:51:43;;;;;;;20.90;8.25;;;;;;;;;;5068121;27;98681;-76
2023/12/27 06:54:10;;;;;;;22.05;8.32;;;;;;;;;;5067406;27;99115;-75
2023/12/27 06:56:38;;;;;;;24.02;8.63;;;;;;;;;;5067448;27;98235;-75
2023/12/27 06:59:05;;;;;;;23.05;8.77;;;;;;;;;;5068685;27;99841;-75
2023/12/27 07:01:32;;;;;;;18.38;6.80;;;;;;;;;;5074385;27;99811;-75
2023/12/27 07:03:58;;;;;;;17.88;7.97;;;;;;;;;;5070703;27;100377;-75
2023/12/27 07:06:25;;;;;;;20.83;8.90;;;;;;;;;;5071598;27;100152;-75
2023/12/27 07:08:51;;;;;;;11.35;7.03;;;;;;;;;;5071570;27;98203;-77
2023/12/27 07:11:18;;;;;;;22.05;9.25;;;;;;;;;;5073013;27;98768;-77
2023/12/27 07:13:46;;;;;;;21.60;7.97;;;;;;;;;;5071413;27;100493;-77
2023/12/27 07:16:13;;;;;;;28.98;8.20;;;;;;;;;;5071033;27;98262;-77
2023/12/27 07:18:40;;;;;;;17.77;8.38;;;;;;;;;;5071082;27;99246;-76
2023/12/27 07:21:07;;;;;;;20.80;7.90;;;;;;;;;;5074117;27;100645;-77
2023/12/27 07:23:34;;;;;;;16.40;7.93;;;;;;;;;;5071731;27;99293;-77
2023/12/27 07:26:00;;;;;;;16.80;8.52;;;;;;;;;;5070209;27;99979;-76
2023/12/27 07:28:27;;;;;;;14.77;7.95;;;;;;;;;;5071676;27;98239;-77
2023/12/27 07:30:53;;;;;;;20.02;7.95;;;;;;;;;;5073113;27;98813;-76
2023/12/27 07:33:20;;;;;;;17.75;7.57;;;;;;;;;;5070911;27;99139;-77
2023/12/27 07:35:47;;;;;;;28.27;7.82;;;;;;;;;;5069881;27;98263;-77
2023/12/27 07:38:13;;;;;;;9.70;6.80;;;;;;;;;;5070081;27;100008;-75
2023/12/27 07:40:40;;;;;;;20.30;8.30;;;;;;;;;;5070874;27;100044;-77
2023/12/27 07:43:09;;;;;;;19.67;8.20;;;;;;;;;;5074254;27;97978;-76
2023/12/27 07:45:36;;;;;;;18.33;7.90;;;;;;;;;;5069890;27;100105;-77
2023/12/27 07:48:02;;;;;;;21.40;7.25;;;;;;;;;;5070610;27;99030;-76
2023/12/27 07:50:29;;;;;;;23.80;8.23;;;;;;;;;;5069947;27;99464;-77
2023/12/27 07:52:55;;;;;;;14.45;7.68;;;;;;;;;;5069831;27;99947;-77
2023/12/27 07:55:22;;;;;;;34.00;8.23;;;;;;;;;;5070746;27;98274;-77
2023/12/27 07:57:48;;;;;;;20.73;6.60;;;;;;;;;;5070655;27;99450;-76
2023/12/27 08:00:15;;;;;;;20.77;8.15;;;;;;;;;;5068457;27;99420;-77
2023/12/27 08:02:42;;;;;;;14.48;6.70;;;;;;;;;;5070457;27;98250;-76
2023/12/27 08:05:08;;;;;;;33.80;7.75;;;;;;;;;;5073385;27;99618;-77
2023/12/27 08:07:34;;;;;;;18.50;6.60;;;;;;;;;;5069978;27;98263;-77
2023/12/27 08:10:01;;;;;;;19.80;7.35;;;;;;;;;;5070005;27;98491;-76
2023/12/27 08:12:28;;;;;;;25.92;7.28;;;;;;;;;;5069243;27;99984;-76
2023/12/27 08:14:55;;;;;;;27.02;8.45;;;;;;;;;;5068402;27;98546;-76
2023/12/27 08:17:22;;;;;;;24.85;7.05;;;;;;;;;;5069971;27;99637;-76
2023/12/27 08:19:48;;;;;;;13.55;6.43;;;;;;;;;;5069849;27;100109;-76
2023/12/27 08:22:15;;;;;;;20.40;7.10;;;;;;;;;;5068413;27;98249;-76
2023/12/27 08:24:41;;;;;;;20.00;7.32;;;;;;;;;;5070025;27;98661;-76
2023/12/27 08:27:08;;;;;;;15.48;7.28;;;;;;;;;;5072249;27;100013;-76
2023/12/27 08:29:34;;;;;;;23.38;6.05;;;;;;;;;;5070303;27;99627;-76
2023/12/27 08:32:04;;;;;;;16.10;6.68;;;;;;;;;;5069714;27;99954;-76
2023/12/27 08:34:30;;;;;;;20.33;7.38;;;;;;;;;;5068675;27;98699;-76
2023/12/27 08:36:57;;;;;;;17.60;7.30;;;;;;;;;;5069603;27;99456;-76
2023/12/27 08:39:23;;;;;;;14.18;7.47;;;;;;;;;;5069093;27;99892;-76
2023/12/27 08:41:50;;;;;;;15.45;7.60;;;;;;;;;;5068708;27;98253;-76
2023/12/27 08:44:17;;;;;;;21.58;7.43;;;;;;;;;;5069796;27;99452;-75
2023/12/27 08:46:43;;;;;;;18.63;7.72;;;;;;;;;;5069572;27;100124;-76
2023/12/27 08:49:09;;;;;;;24.15;8.68;;;;;;;;;;5071530;27;98438;-75
2023/12/27 08:51:37;;;;;;;18.17;7.85;;;;;;;;;;5069719;27;99938;-76
2023/12/27 08:54:04;;;;;;;19.88;7.20;;;;;;;;;;5069850;27;98933;-76
2023/12/27 08:56:30;;;;;;;17.42;7.18;;;;;;;;;;5068775;27;99404;-76
2023/12/27 08:58:57;;;;;;;16.42;7.60;;;;;;;;;;5069242;27;99960;-76
2023/12/27 09:01:23;;;;;;;9.75;7.22;;;;;;;;;;5069718;27;98642;-76
2023/12/27 09:03:50;;;;;;;13.10;7.72;;;;;;;;;;5067950;27;99516;-75
2023/12/27 09:06:16;;;;;;;10.63;7.50;;;;;;;;;;5068922;27;99896;-76
2023/12/27 09:08:43;;;;;;;12.73;7.82;;;;;;;;;;5068863;27;98263;-76
2023/12/27 09:11:10;;;;;;;10.50;7.85;;;;;;;;;;5071023;27;99585;-75
2023/12/27 09:13:36;;;;;;;13.18;8.40;;;;;;;;;;5068663;27;98256;-76
2023/12/27 09:16:03;;;;;;;14.23;8.60;;;;;;;;;;5069032;27;99328;-76
2023/12/27 09:18:30;;;;;;;18.48;7.78;;;;;;;;;;5068385;27;99945;-76
2023/12/27 09:20:57;;;;;;;8.93;7.15;;;;;;;;;;5069003;27;98279;-76
2023/12/27 09:23:23;;;;;;;15.45;7.80;;;;;;;;;;5067440;27;99465;-76
2023/12/27 09:25:50;;;;;;;14.60;8.02;;;;;;;;;;5068964;27;100210;-76
2023/12/27 09:28:18;;;;;;;12.43;8.00;;;;;;;;;;5068095;27;98188;-76
2023/12/27 09:30:44;;;;;;;9.23;7.07;;;;;;;;;;5071540;27;99533;-76
2023/12/27 09:33:11;;;;;;;9.77;7.07;;;;;;;;;;5068830;27;99433;-74
2023/12/27 09:35:41;;;;;;;13.13;7.78;;;;;;;;;;5069135;27;99605;-74
2023/12/27 09:38:08;;;;;;;12.90;7.40;;;;;;;;;;5067797;27;99795;-74
2023/12/27 09:40:34;;;;;;;13.40;8.18;;;;;;;;;;5068887;27;98200;-75
2023/12/27 09:43:03;;;;;;;10.27;7.63;;;;;;;;;;5068447;27;99420;-75
2023/12/27 09:45:32;;;;;;;9.30;7.60;;;;;;;;;;5068022;27;99868;-75
2023/12/27 09:47:59;;;;;;;10.40;7.43;;;;;;;;;;5068696;27;98231;-75
2023/12/27 09:50:27;;;;;;;10.23;8.05;;;;;;;;;;5068354;27;99809;-75
2023/12/27 09:52:53;;;;;;;13.52;7.47;;;;;;;;;;5070210;27;100059;-74
2023/12/27 09:55:20;;;;;;;13.48;8.23;;;;;;;;;;5068498;27;99252;-74
2023/12/27 09:57:48;;;;;;;16.77;8.00;;;;;;;;;;5068471;27;99926;-75
2023/12/27 10:00:16;;;;;;;11.60;7.93;;;;;;;;;;5067537;27;98408;-74
2023/12/27 10:02:44;;;;;;;11.23;8.90;;;;;;;;;;5068577;27;99745;-74
2023/12/27 10:05:26;;;;;;;12.32;9.00;;;;;;;;;;5067362;27;99253;-74
2023/12/27 10:07:53;;;;;;;12.27;8.20;;;;;;;;;;5067005;27;98231;-74
2023/12/27 10:10:19;;;;;;;10.52;8.05;;;;;;;;;;5068294;27;99401;-75
2023/12/27 10:12:54;;;;;;;11.20;8.63;;;;;;;;;;5067544;27;99973;-75
2023/12/27 10:15:21;;;;;;;11.38;8.20;;;;;;;;;;5071442;27;98405;-75
2023/12/27 10:17:47;;;;;;;13.05;7.70;;;;;;;;;;5067242;27;100089;-75
2023/12/27 10:20:29;;;;;;;15.77;8.32;;;;;;;;;;5067007;27;98762;-75
2023/12/27 10:22:56;;;;;;;17.77;9.07;;;;;;;;;;5068436;27;99457;-75
2023/12/27 10:25:23;;;;;;;12.65;6.97;;;;;;;;;;5068347;27;100049;-75
2023/12/27 10:27:49;;;;;;;10.98;7.10;;;;;;;;;;5068061;27;98127;-75
2023/12/27 10:30:18;;;;;;;7.68;7.00;;;;;;;;;;5069139;27;99742;-75
2023/12/27 10:32:55;;;;;;;10.45;8.13;;;;;;;;;;5069106;27;98872;-75
2023/12/27 10:35:22;;;;;;;10.10;7.72;;;;;;;;;;5071282;27;98165;-75
2023/12/27 10:37:57;;;;;;;10.45;8.32;;;;;;;;;;5075176;27;99439;-75
2023/12/27 10:40:24;;;;;;;10.63;8.10;;;;;;;;;;5072296;27;98134;-75
2023/12/27 10:42:51;;;;;;;11.00;8.95;;;;;;;;;;5070608;27;99487;-74
2023/12/27 10:45:17;;;;;;;12.45;7.28;;;;;;;;;;5071275;27;99997;-75
2023/12/27 10:47:47;;;;;;;10.73;7.90;;;;;;;;;;5071773;27;98251;-75
2023/12/27 10:50:15;;;;;;;9.23;8.05;;;;;;;;;;5070597;27;98868;-75
2023/12/27 10:52:44;;;;;;;9.27;7.28;;;;;;;;;;5071371;27;99871;-76
2023/12/27 10:55:11;;;;;;;11.82;9.27;;;;;;;;;;5070427;27;98567;-75
2023/12/27 10:57:38;;;;;;;16.30;8.48;;;;;;;;;;5071458;27;99373;-76
2023/12/27 11:00:08;;;;;;;10.50;7.95;;;;;;;;;;5074758;27;100098;-76
2023/12/27 11:02:36;;;;;;;10.45;8.50;;;;;;;;;;5070892;27;99449;-76
2023/12/27 11:05:03;;;;;;;8.18;7.38;;;;;;;;;;5071159;27;100273;-76
2023/12/27 11:07:31;;;;;;;13.40;7.25;;;;;;;;;;5072462;27;98228;-75
2023/12/27 11:09:58;;;;;;;7.93;7.22;;;;;;;;;;5070796;27;99620;-75
2023/12/27 11:12:27;;;;;;;9.13;7.22;;;;;;;;;;5070792;27;100268;-76
2023/12/27 11:14:56;;;;;;;7.88;7.07;;;;;;;;;;5071699;27;98913;-75
2023/12/27 11:17:26;;;;;;;10.63;7.40;;;;;;;;;;5070840;27;99541;-76
2023/12/27 11:19:53;;;;;;;7.50;6.85;;;;;;;;;;5071455;27;100028;-75
2023/12/27 11:22:19;;;;;;;9.02;7.68;;;;;;;;;;5074718;27;98190;-75
2023/12/27 11:24:46;;;;;;;11.75;8.15;;;;;;;;;;5070649;27;99793;-75
2023/12/27 11:27:16;;;;;;;11.43;8.35;;;;;;;;;;5075448;27;98224;-76
2023/12/27 11:29:43;;;;;;;8.98;7.60;;;;;;;;;;5071364;27;100752;-75
2023/12/27 11:32:09;;;;;;;8.05;7.38;;;;;;;;;;5069162;27;99894;-75
2023/12/27 11:34:36;;;;;;;11.60;7.40;;;;;;;;;;5070764;27;98225;-75
2023/12/27 11:37:02;;;;;;;10.07;8.40;;;;;;;;;;5069997;27;99484;-75
2023/12/27 11:39:29;;;;;;;7.95;7.03;;;;;;;;;;5071101;27;99961;-75
2023/12/27 11:41:57;;;;;;;12.30;7.55;;;;;;;;;;5074169;27;98275;-75
2023/12/27 11:44:34;;;;;;;9.18;7.45;;;;;;;;;;5069436;27;99719;-75
2023/12/27 11:47:00;;;;;;;14.02;7.47;;;;;;;;;;5069522;27;98066;-75
2023/12/27 11:49:27;;;;;;;11.80;7.07;;;;;;;;;;5071277;27;99861;-75
2023/12/27 11:51:54;;;;;;;7.50;6.80;;;;;;;;;;5069508;27;100597;-75
2023/12/27 11:54:25;;;;;;;8.40;7.22;;;;;;;;;;5070709;27;98171;-75
2023/12/27 11:56:53;;;;;;;6.95;6.22;;;;;;;;;;5071711;27;99499;-75
2023/12/27 11:59:21;;;;;;;6.95;6.20;;;;;;;;;;5068947;27;99031;-75
2023/12/27 12:01:49;;;;;;;8.77;6.30;;;;;;;;;;5070391;27;98424;-74
2023/12/27 12:04:16;;;;;;;9.95;6.22;;;;;;;;;;5073251;27;99738;-75
2023/12/27 12:06:48;;;;;;;7.57;5.47;;;;;;;;;;5069266;27;98015;-75
2023/12/27 12:09:15;;;;;;;8.80;5.70;;;;;;;;;;5070259;27;99537;-76
2023/12/27 12:11:45;;;;;;;7.45;5.35;;;;;;;;;;5069389;27;98704;-74
2023/12/27 12:14:11;;;;;;;8.52;5.22;;;;;;;;;;5069426;27;98240;-75
2023/12/27 12:16:38;;;;;;;6.32;5.72;;;;;;;;;;5069752;27;99268;-75
2023/12/27 12:19:08;;;;;;;7.78;5.28;;;;;;;;;;5069847;27;100112;-75
2023/12/27 12:21:35;;;;;;;7.15;5.32;;;;;;;;;;5068194;27;98779;-75
2023/12/27 12:24:08;;;;;;;6.07;5.05;;;;;;;;;;5070060;27;99299;-75
2023/12/27 12:26:35;;;;;;;9.00;4.75;;;;;;;;;;5072757;27;100114;-75
2023/12/27 12:29:03;;;;;;;10.48;5.60;;;;;;;;;;5070193;27;99538;-75
2023/12/27 12:31:31;;;;;;;11.45;5.70;;;;;;;;;;5069766;27;99940;-76
2023/12/27 12:33:58;;;;;;;7.32;5.03;;;;;;;;;;5069035;27;98246;-76
2023/12/27 12:36:25;;;;;;;8.10;5.82;;;;;;;;;;5069468;27;98592;-76
2023/12/27 12:38:53;;;;;;;6.68;4.95;;;;;;;;;;5070209;27;100088;-76
2023/12/27 12:41:19;;;;;;;5.93;5.03;;;;;;;;;;5068892;27;98242;-76
2023/12/27 12:43:47;;;;;;;10.27;4.70;;;;;;;;;;5069806;27;99403;-76
2023/12/27 12:46:14;;;;;;;6.25;5.60;;;;;;;;;;5068993;27;99907;-76
2023/12/27 12:48:42;;;;;;;17.35;5.20;;;;;;;;;;5072275;27;98207;-76
2023/12/27 12:51:12;;;;;;;7.53;5.05;;;;;;;;;;5069303;27;100129;-76
2023/12/27 12:53:39;;;;;;;5.25;4.85;;;;;;;;;;5069634;27;98301;-76
2023/12/27 12:56:07;;;;;;;8.50;5.47;;;;;;;;;;5068787;27;99436;-76
2023/12/27 12:58:38;;;;;;;5.82;5.10;;;;;;;;;;5069114;27;99969;-76
2023/12/27 13:01:04;;;;;;;10.55;4.90;;;;;;;;;;5069439;27;98279;-76
2023/12/27 13:03:37;;;;;;;4.55;4.18;;;;;;;;;;5068730;27;98491;-75
2023/12/27 13:06:10;;;;;;;4.72;4.32;;;;;;;;;;5069040;27;99940;-76
2023/12/27 13:08:37;;;;;;;11.13;5.05;;;;;;;;;;5068492;27;98347;-75
2023/12/27 13:11:03;;;;;;;7.53;4.47;;;;;;;;;;5070713;27;99561;-76
2023/12/27 13:13:30;;;;;;;4.95;4.53;;;;;;;;;;5069296;27;98261;-75
2023/12/27 13:15:58;;;;;;;8.32;5.78;;;;;;;;;;5068206;27;98393;-75
2023/12/27 13:18:25;;;;;;;8.80;4.00;;;;;;;;;;5069152;27;99998;-74
2023/12/27 13:20:52;;;;;;;7.63;4.10;;;;;;;;;;5069190;27;98256;-76
2023/12/27 13:23:19;;;;;;;6.22;4.30;;;;;;;;;;5068474;27;99818;-76
2023/12/27 13:25:46;;;;;;;4.78;4.45;;;;;;;;;;5069116;27;99967;-74
2023/12/27 13:28:13;;;;;;;10.27;4.60;;;;;;;;;;5069044;27;98231;-75
2023/12/27 13:30:39;;;;;;;10.68;4.45;;;;;;;;;;5068169;27;98626;-75
2023/12/27 13:33:06;;;;;;;5.35;4.50;;;;;;;;;;5071403;27;98266;-75
2023/12/27 13:35:33;;;;;;;5.90;5.40;;;;;;;;;;5067761;27;98300;-75
2023/12/27 13:37:59;;;;;;;8.27;4.32;;;;;;;;;;5067844;27;100066;-75
2023/12/27 13:40:26;;;;;;;12.85;4.50;;;;;;;;;;5069127;27;98320;-76
2023/12/27 13:42:53;;;;;;;7.70;4.47;;;;;;;;;;5068964;27;99544;-76
2023/12/27 13:45:22;;;;;;;7.00;4.75;;;;;;;;;;5068237;27;100172;-76
2023/12/27 13:47:49;;;;;;;5.47;4.07;;;;;;;;;;5069043;27;98564;-75
2023/12/27 13:50:15;;;;;;;5.85;3.88;;;;;;;;;;5068423;27;99379;-75
2023/12/27 13:52:42;;;;;;;6.15;3.92;;;;;;;;;;5071511;27;99117;-76
2023/12/27 13:55:08;;;;;;;6.82;4.03;;;;;;;;;;5068573;27;99720;-77
2023/12/27 13:57:37;;;;;;;13.00;4.70;;;;;;;;;;5068407;27;100212;-77
2023/12/27 14:00:08;;;;;;;11.45;4.40;;;;;;;;;;5067183;27;98357;-76
2023/12/27 14:02:40;;;;;;;5.72;4.43;;;;;;;;;;5068424;27;99387;-77
2023/12/27 14:05:07;;;;;;;5.60;4.10;;;;;;;;;;5067474;27;100021;-76
2023/12/27 14:07:35;;;;;;;9.20;4.15;;;;;;;;;;5068538;27;98258;-76
2023/12/27 14:10:04;;;;;;;7.35;4.35;;;;;;;;;;5067592;27;99665;-76
2023/12/27 14:12:31;;;;;;;7.05;4.00;;;;;;;;;;5066691;27;98944;-76
2023/12/27 14:15:00;;;;;;;11.18;4.03;;;;;;;;;;5071076;27;98287;-76
2023/12/27 14:17:29;;;;;;;11.88;4.57;;;;;;;;;;5067996;27;99071;-77
2023/12/27 14:19:56;;;;;;;10.18;3.65;;;;;;;;;;5067183;27;98243;-76
2023/12/27 14:22:23;;;;;;;5.70;4.05;;;;;;;;;;5068263;27;99920;-77
2023/12/27 14:24:49;;;;;;;7.18;3.50;;;;;;;;;;5067399;27;99931;-77
2023/12/27 14:27:16;;;;;;;12.13;4.63;;;;;;;;;;5067386;27;99452;-77
2023/12/27 14:29:42;;;;;;;9.50;4.38;;;;;;;;;;5067928;27;99591;-76